sensor_id;sensor_type;location;lat;lon;timestamp;pressure;altitude;pressure_sealevel;temperature;humidity
76868;BME280;66168;45.478;11.060;2024-02-14T00:00:44;101384.14;;;10.26;48.26
76868;BME280;66168;45.478;11.060;2024-02-14T00:03:11;101381.63;;;10.28;48.06
76868;BME280;66168;45.478;11.060;2024-02-14T00:05:38;101389.64;;;10.29;47.37
76868;BME280;66168;45.478;11.060;2024-02-14T00:08:08;101388.86;;;10.32;47.60
76868;BME280;66168;45.478;11.060;2024-02-14T00:10:35;101396.28;;;10.34;47.80
76868;BME280;66168;45.478;11.060;2024-02-14T00:13:02;101394.59;;;10.33;48.14
76868;BME280;66168;45.478;11.060;2024-02-14T00:15:29;101401.64;;;10.30;48.34
76868;BME280;66168;45.478;11.060;2024-02-14T00:17:56;101403.70;;;10.27;48.58
76868;BME280;66168;45.478;11.060;2024-02-14T00:20:23;101408.04;;;10.23;48.74
76868;BME280;66168;45.478;11.060;2024-02-14T00:22:51;101404.90;;;10.20;48.57
76868;BME280;66168;45.478;11.060;2024-02-14T00:25:18;101407.67;;;10.19;48.75
76868;BME280;66168;45.478;11.060;2024-02-14T00:27:46;101409.27;;;10.18;48.91
76868;BME280;66168;45.478;11.060;2024-02-14T00:30:13;101413.24;;;10.17;48.95
76868;BME280;66168;45.478;11.060;2024-02-14T00:32:40;101410.79;;;10.13;49.07
76868;BME280;66168;45.478;11.060;2024-02-14T00:35:07;101407.64;;;10.09;49.23
76868;BME280;66168;45.478;11.060;2024-02-14T00:37:35;101405.60;;;10.04;49.22
76868;BME280;66168;45.478;11.060;2024-02-14T00:40:03;101404.74;;;10.01;49.24
76868;BME280;66168;45.478;11.060;2024-02-14T00:42:31;101409.22;;;9.97;49.44
76868;BME280;66168;45.478;11.060;2024-02-14T00:44:58;101408.14;;;9.94;49.01
76868;BME280;66168;45.478;11.060;2024-02-14T00:47:24;101409.13;;;9.94;48.98
76868;BME280;66168;45.478;11.060;2024-02-14T00:49:52;101407.08;;;9.93;49.10
76868;BME280;66168;45.478;11.060;2024-02-14T00:52:19;101410.54;;;9.94;49.03
76868;BME280;66168;45.478;11.060;2024-02-14T00:54:48;101409.27;;;9.94;49.08
76868;BME280;66168;45.478;11.060;2024-02-14T00:57:15;101413.75;;;9.94;49.08
76868;BME280;66168;45.478;11.060;2024-02-14T00:59:43;101416.48;;;9.93;48.83
76868;BME280;66168;45.478;11.060;2024-02-14T01:02:10;101416.38;;;9.94;48.30
76868;BME280;66168;45.478;11.060;2024-02-14T01:04:37;101424.64;;;9.97;48.13
76868;BME280;66168;45.478;11.060;2024-02-14T01:07:04;101420.87;;;9.99;48.49
76868;BME280;66168;45.478;11.060;2024-02-14T01:09:30;101423.67;;;10.01;48.58
76868;BME280;66168;45.478;11.060;2024-02-14T01:11:58;101424.95;;;10.02;48.29
76868;BME280;66168;45.478;11.060;2024-02-14T01:14:25;101423.69;;;10.02;48.73
76868;BME280;66168;45.478;11.060;2024-02-14T01:16:52;101422.15;;;10.02;48.44
76868;BME280;66168;45.478;11.060;2024-02-14T01:19:21;101421.79;;;10.02;48.72
76868;BME280;66168;45.478;11.060;2024-02-14T01:21:50;101421.17;;;10.05;48.19
76868;BME280;66168;45.478;11.060;2024-02-14T01:24:17;101421.55;;;10.06;47.73
76868;BME280;66168;45.478;11.060;2024-02-14T01:26:44;101421.84;;;10.07;47.85
76868;BME280;66168;45.478;11.060;2024-02-14T01:29:10;101418.78;;;10.07;48.01
76868;BME280;66168;45.478;11.060;2024-02-14T01:31:38;101422.17;;;10.09;48.21
76868;BME280;66168;45.478;11.060;2024-02-14T01:34:05;101419.12;;;10.09;48.18
76868;BME280;66168;45.478;11.060;2024-02-14T01:36:32;101417.00;;;10.09;47.84
76868;BME280;66168;45.478;11.060;2024-02-14T01:38:59;101417.74;;;10.11;47.91
76868;BME280;66168;45.478;11.060;2024-02-14T01:41:26;101416.55;;;10.12;47.82
76868;BME280;66168;45.478;11.060;2024-02-14T01:43:53;101416.41;;;10.14;47.70
76868;BME280;66168;45.478;11.060;2024-02-14T01:46:20;101417.17;;;10.15;47.84
76868;BME280;66168;45.478;11.060;2024-02-14T01:48:47;101421.19;;;10.17;47.78
76868;BME280;66168;45.478;11.060;2024-02-14T01:51:15;101421.65;;;10.18;47.75
76868;BME280;66168;45.478;11.060;2024-02-14T01:53:44;101419.90;;;10.19;47.55
76868;BME280;66168;45.478;11.060;2024-02-14T01:56:12;101416.98;;;10.22;47.78
76868;BME280;66168;45.478;11.060;2024-02-14T01:58:39;101417.13;;;10.22;47.58
76868;BME280;66168;45.478;11.060;2024-02-14T02:01:06;101415.98;;;10.23;47.62
76868;BME280;66168;45.478;11.060;2024-02-14T02:03:34;101415.00;;;10.26;47.53
76868;BME280;66168;45.478;11.060;2024-02-14T02:06:06;101416.48;;;10.27;47.87
76868;BME280;66168;45.478;11.060;2024-02-14T02:08:33;101415.14;;;10.26;47.47
76868;BME280;66168;45.478;11.060;2024-02-14T02:11:01;101414.72;;;10.27;47.72
76868;BME280;66168;45.478;11.060;2024-02-14T02:13:27;101415.81;;;10.27;47.55
76868;BME280;66168;45.478;11.060;2024-02-14T02:15:55;101417.55;;;10.27;47.85
76868;BME280;66168;45.478;11.060;2024-02-14T02:18:22;101416.31;;;10.28;48.04
76868;BME280;66168;45.478;11.060;2024-02-14T02:20:49;101414.66;;;10.29;47.88
76868;BME280;66168;45.478;11.060;2024-02-14T02:23:16;101411.90;;;10.28;47.67
76868;BME280;66168;45.478;11.060;2024-02-14T02:25:43;101412.63;;;10.28;48.01
76868;BME280;66168;45.478;11.060;2024-02-14T02:28:10;101414.05;;;10.27;48.29
76868;BME280;66168;45.478;11.060;2024-02-14T02:30:37;101419.14;;;10.25;48.21
76868;BME280;66168;45.478;11.060;2024-02-14T02:33:05;101417.60;;;10.23;48.72
76868;BME280;66168;45.478;11.060;2024-02-14T02:35:34;101417.24;;;10.19;48.94
76868;BME280;66168;45.478;11.060;2024-02-14T02:38:01;101415.83;;;10.16;49.12
76868;BME280;66168;45.478;11.060;2024-02-14T02:40:28;101417.34;;;10.13;49.06
76868;BME280;66168;45.478;11.060;2024-02-14T02:42:55;101414.48;;;10.10;49.05
76868;BME280;66168;45.478;11.060;2024-02-14T02:45:22;101411.59;;;10.05;49.15
76868;BME280;66168;45.478;11.060;2024-02-14T02:47:49;101414.59;;;10.03;49.39
76868;BME280;66168;45.478;11.060;2024-02-14T02:50:19;101417.83;;;10.01;49.65
76868;BME280;66168;45.478;11.060;2024-02-14T02:52:47;101422.83;;;9.99;49.69
76868;BME280;66168;45.478;11.060;2024-02-14T02:55:14;101422.23;;;9.98;49.62
76868;BME280;66168;45.478;11.060;2024-02-14T02:57:44;101425.52;;;9.95;50.02
76868;BME280;66168;45.478;11.060;2024-02-14T03:00:13;101430.67;;;9.89;50.38
76868;BME280;66168;45.478;11.060;2024-02-14T03:02:40;101426.34;;;9.83;50.56
76868;BME280;66168;45.478;11.060;2024-02-14T03:05:12;101428.91;;;9.79;50.66
76868;BME280;66168;45.478;11.060;2024-02-14T03:07:46;101428.11;;;9.75;50.63
76868;BME280;66168;45.478;11.060;2024-02-14T03:10:15;101431.54;;;9.72;50.88
76868;BME280;66168;45.478;11.060;2024-02-14T03:12:47;101432.84;;;9.70;51.09
76868;BME280;66168;45.478;11.060;2024-02-14T03:15:14;101435.48;;;9.68;51.12
76868;BME280;66168;45.478;11.060;2024-02-14T03:17:42;101438.27;;;9.67;51.26
76868;BME280;66168;45.478;11.060;2024-02-14T03:20:12;101440.40;;;9.65;51.39
76868;BME280;66168;45.478;11.060;2024-02-14T03:22:44;101438.92;;;9.64;51.38
76868;BME280;66168;45.478;11.060;2024-02-14T03:25:18;101442.11;;;9.62;51.56
76868;BME280;66168;45.478;11.060;2024-02-14T03:27:45;101445.60;;;9.59;51.73
76868;BME280;66168;45.478;11.060;2024-02-14T03:30:15;101450.77;;;9.57;51.84
76868;BME280;66168;45.478;11.060;2024-02-14T03:32:44;101452.67;;;9.53;52.13
76868;BME280;66168;45.478;11.060;2024-02-14T03:35:12;101454.16;;;9.49;52.32
76868;BME280;66168;45.478;11.060;2024-02-14T03:37:46;101455.09;;;9.45;52.59
76868;BME280;66168;45.478;11.060;2024-02-14T03:40:15;101455.46;;;9.41;52.74
76868;BME280;66168;45.478;11.060;2024-02-14T03:42:43;101459.25;;;9.37;52.88
76868;BME280;66168;45.478;11.060;2024-02-14T03:45:11;101459.41;;;9.32;53.09
76868;BME280;66168;45.478;11.060;2024-02-14T03:47:38;101464.33;;;9.28;53.16
76868;BME280;66168;45.478;11.060;2024-02-14T03:50:08;101468.38;;;9.25;53.74
76868;BME280;66168;45.478;11.060;2024-02-14T03:52:36;101475.59;;;9.22;54.02
76868;BME280;66168;45.478;11.060;2024-02-14T03:55:03;101483.44;;;9.18;54.06
76868;BME280;66168;45.478;11.060;2024-02-14T03:57:30;101480.77;;;9.14;54.11
76868;BME280;66168;45.478;11.060;2024-02-14T03:59:59;101483.18;;;9.13;54.22
76868;BME280;66168;45.478;11.060;2024-02-14T04:02:37;101487.07;;;9.11;54.43
76868;BME280;66168;45.478;11.060;2024-02-14T04:05:07;101494.36;;;9.09;54.70
76868;BME280;66168;45.478;11.060;2024-02-14T04:07:34;101494.88;;;9.05;54.87
76868;BME280;66168;45.478;11.060;2024-02-14T04:10:01;101495.47;;;9.05;55.09
76868;BME280;66168;45.478;11.060;2024-02-14T04:12:28;101501.52;;;9.04;55.34
76868;BME280;66168;45.478;11.060;2024-02-14T04:14:55;101504.48;;;9.01;55.30
76868;BME280;66168;45.478;11.060;2024-02-14T04:17:22;101505.51;;;8.99;55.63
76868;BME280;66168;45.478;11.060;2024-02-14T04:19:51;101506.23;;;8.96;56.03
76868;BME280;66168;45.478;11.060;2024-02-14T04:22:18;101507.30;;;8.77;56.85
76868;BME280;66168;45.478;11.060;2024-02-14T04:24:45;101503.74;;;8.49;56.76
76868;BME280;66168;45.478;11.060;2024-02-14T04:27:12;101505.98;;;8.36;56.79
76868;BME280;66168;45.478;11.060;2024-02-14T04:29:39;101512.29;;;8.31;57.29
76868;BME280;66168;45.478;11.060;2024-02-14T04:32:07;101512.54;;;8.22;57.88
76868;BME280;66168;45.478;11.060;2024-02-14T04:34:35;101512.92;;;8.16;58.17
76868;BME280;66168;45.478;11.060;2024-02-14T04:37:06;101514.37;;;8.06;58.60
76868;BME280;66168;45.478;11.060;2024-02-14T04:39:41;101516.71;;;8.02;58.96
76868;BME280;66168;45.478;11.060;2024-02-14T04:42:08;101518.39;;;8.01;58.91
76868;BME280;66168;45.478;11.060;2024-02-14T04:44:35;101522.34;;;8.04;58.49
76868;BME280;66168;45.478;11.060;2024-02-14T04:47:03;101527.75;;;8.06;58.90
76868;BME280;66168;45.478;11.060;2024-02-14T04:49:30;101532.41;;;8.06;59.02
76868;BME280;66168;45.478;11.060;2024-02-14T04:51:57;101532.18;;;8.03;59.79
76868;BME280;66168;45.478;11.060;2024-02-14T04:54:25;101534.30;;;8.01;60.27
76868;BME280;66168;45.478;11.060;2024-02-14T04:56:54;101530.34;;;7.97;60.54
76868;BME280;66168;45.478;11.060;2024-02-14T04:59:26;101530.41;;;7.94;60.62
76868;BME280;66168;45.478;11.060;2024-02-14T05:01:53;101532.08;;;7.93;60.60
76868;BME280;66168;45.478;11.060;2024-02-14T05:04:20;101527.02;;;7.93;60.59
76868;BME280;66168;45.478;11.060;2024-02-14T05:06:48;101527.38;;;7.95;60.68
76868;BME280;66168;45.478;11.060;2024-02-14T05:09:18;101523.42;;;7.98;60.54
76868;BME280;66168;45.478;11.060;2024-02-14T05:11:45;101524.26;;;8.00;60.47
76868;BME280;66168;45.478;11.060;2024-02-14T05:14:12;101525.42;;;8.05;60.32
76868;BME280;66168;45.478;11.060;2024-02-14T05:16:39;101522.06;;;8.07;60.43
76868;BME280;66168;45.478;11.060;2024-02-14T05:19:05;101519.79;;;8.07;60.46
76868;BME280;66168;45.478;11.060;2024-02-14T05:21:33;101519.44;;;8.05;60.42
76868;BME280;66168;45.478;11.060;2024-02-14T05:24:01;101518.22;;;8.05;60.26
76868;BME280;66168;45.478;11.060;2024-02-14T05:26:28;101517.40;;;8.04;60.30
76868;BME280;66168;45.478;11.060;2024-02-14T05:28:55;101522.98;;;8.02;60.14
76868;BME280;66168;45.478;11.060;2024-02-14T05:31:22;101519.24;;;7.99;60.18
76868;BME280;66168;45.478;11.060;2024-02-14T05:33:49;101525.24;;;7.99;60.21
76868;BME280;66168;45.478;11.060;2024-02-14T05:36:17;101527.25;;;7.98;60.20
76868;BME280;66168;45.478;11.060;2024-02-14T05:38:44;101529.32;;;7.99;60.15
76868;BME280;66168;45.478;11.060;2024-02-14T05:41:10;101530.81;;;7.98;60.04
76868;BME280;66168;45.478;11.060;2024-02-14T05:43:38;101531.95;;;7.97;60.05
76868;BME280;66168;45.478;11.060;2024-02-14T05:46:05;101532.39;;;7.96;60.11
76868;BME280;66168;45.478;11.060;2024-02-14T05:48:32;101534.65;;;7.94;60.16
76868;BME280;66168;45.478;11.060;2024-02-14T05:50:59;101539.78;;;7.94;60.12
76868;BME280;66168;45.478;11.060;2024-02-14T05:53:32;101544.89;;;7.94;60.10
76868;BME280;66168;45.478;11.060;2024-02-14T05:56:00;101546.91;;;7.93;60.06
76868;BME280;66168;45.478;11.060;2024-02-14T05:58:27;101547.77;;;7.92;60.24
76868;BME280;66168;45.478;11.060;2024-02-14T06:00:55;101550.95;;;7.92;59.92
76868;BME280;66168;45.478;11.060;2024-02-14T06:03:22;101551.13;;;7.90;59.95
76868;BME280;66168;45.478;11.060;2024-02-14T06:05:49;101556.02;;;7.90;59.61
76868;BME280;66168;45.478;11.060;2024-02-14T06:08:19;101554.98;;;7.90;59.58
76868;BME280;66168;45.478;11.060;2024-02-14T06:10:46;101556.92;;;7.90;59.54
76868;BME280;66168;45.478;11.060;2024-02-14T06:13:12;101550.88;;;7.89;59.52
76868;BME280;66168;45.478;11.060;2024-02-14T06:15:39;101557.70;;;7.87;59.52
76868;BME280;66168;45.478;11.060;2024-02-14T06:18:06;101561.01;;;7.88;59.33
76868;BME280;66168;45.478;11.060;2024-02-14T06:20:33;101556.17;;;7.89;59.23
76868;BME280;66168;45.478;11.060;2024-02-14T06:23:00;101558.54;;;7.90;59.26
76868;BME280;66168;45.478;11.060;2024-02-14T06:25:31;101553.64;;;7.91;58.91
76868;BME280;66168;45.478;11.060;2024-02-14T06:27:59;101554.64;;;7.92;59.05
76868;BME280;66168;45.478;11.060;2024-02-14T06:30:26;101557.48;;;7.94;58.92
76868;BME280;66168;45.478;11.060;2024-02-14T06:32:58;101557.44;;;7.94;58.77
76868;BME280;66168;45.478;11.060;2024-02-14T06:35:29;101558.95;;;7.97;58.70
76868;BME280;66168;45.478;11.060;2024-02-14T06:37:57;101564.30;;;8.01;58.39
76868;BME280;66168;45.478;11.060;2024-02-14T06:40:31;101569.30;;;8.04;58.13
76868;BME280;66168;45.478;11.060;2024-02-14T06:42:58;101572.45;;;8.08;57.87
76868;BME280;66168;45.478;11.060;2024-02-14T06:45:27;101573.61;;;8.13;58.06
76868;BME280;66168;45.478;11.060;2024-02-14T06:47:54;101578.92;;;8.17;57.77
76868;BME280;66168;45.478;11.060;2024-02-14T06:50:22;101579.11;;;8.20;57.70
76868;BME280;66168;45.478;11.060;2024-02-14T06:52:52;101583.27;;;8.25;57.17
76868;BME280;66168;45.478;11.060;2024-02-14T06:55:19;101587.50;;;8.31;56.96
76868;BME280;66168;45.478;11.060;2024-02-14T06:57:46;101595.02;;;8.34;57.63
76868;BME280;66168;45.478;11.060;2024-02-14T07:00:13;101598.23;;;8.32;58.09
76868;BME280;66168;45.478;11.060;2024-02-14T07:02:41;101600.45;;;8.29;58.35
76868;BME280;66168;45.478;11.060;2024-02-14T07:05:09;101598.52;;;8.33;57.74
76868;BME280;66168;45.478;11.060;2024-02-14T07:07:40;101603.84;;;8.32;58.51
76868;BME280;66168;45.478;11.060;2024-02-14T07:10:08;101606.45;;;8.21;59.57
76868;BME280;66168;45.478;11.060;2024-02-14T07:12:35;101608.35;;;8.14;59.53
76868;BME280;66168;45.478;11.060;2024-02-14T07:15:05;101613.86;;;8.17;59.45
76868;BME280;66168;45.478;11.060;2024-02-14T07:17:32;101618.39;;;8.22;59.89
76868;BME280;66168;45.478;11.060;2024-02-14T07:20:01;101617.30;;;8.20;59.66
76868;BME280;66168;45.478;11.060;2024-02-14T07:22:28;101619.43;;;8.14;59.31
76868;BME280;66168;45.478;11.060;2024-02-14T07:24:57;101621.66;;;8.11;59.04
76868;BME280;66168;45.478;11.060;2024-02-14T07:27:24;101621.20;;;8.18;59.28
76868;BME280;66168;45.478;11.060;2024-02-14T07:29:51;101624.64;;;8.31;59.48
76868;BME280;66168;45.478;11.060;2024-02-14T07:32:18;101626.81;;;8.44;59.36
76868;BME280;66168;45.478;11.060;2024-02-14T07:34:45;101629.43;;;8.58;59.22
76868;BME280;66168;45.478;11.060;2024-02-14T07:37:13;101634.91;;;8.71;58.51
76868;BME280;66168;45.478;11.060;2024-02-14T07:39:42;101640.83;;;8.86;57.94
76868;BME280;66168;45.478;11.060;2024-02-14T07:42:08;101647.77;;;9.01;57.85
76868;BME280;66168;45.478;11.060;2024-02-14T07:57:46;101650.91;;;10.32;56.40
76868;BME280;66168;45.478;11.060;2024-02-14T08:00:13;101657.98;;;10.56;55.79
76868;BME280;66168;45.478;11.060;2024-02-14T08:02:45;101662.81;;;10.61;55.94
76868;BME280;66168;45.478;11.060;2024-02-14T08:05:12;101659.92;;;10.69;56.08
76868;BME280;66168;45.478;11.060;2024-02-14T08:07:39;101669.48;;;10.77;56.23
76868;BME280;66168;45.478;11.060;2024-02-14T08:10:06;101669.98;;;10.87;56.11
76868;BME280;66168;45.478;11.060;2024-02-14T08:12:33;101668.39;;;10.96;55.78
76868;BME280;66168;45.478;11.060;2024-02-14T08:14:59;101666.55;;;11.06;55.13
76868;BME280;66168;45.478;11.060;2024-02-14T08:17:31;101665.77;;;11.21;54.36
76868;BME280;66168;45.478;11.060;2024-02-14T08:19:58;101662.21;;;11.35;54.38
76868;BME280;66168;45.478;11.060;2024-02-14T08:22:26;101660.81;;;11.49;54.36
76868;BME280;66168;45.478;11.060;2024-02-14T08:24:53;101663.13;;;11.62;53.57
76868;BME280;66168;45.478;11.060;2024-02-14T08:27:20;101667.42;;;11.76;53.13
76868;BME280;66168;45.478;11.060;2024-02-14T08:29:49;101665.37;;;11.89;53.34
76868;BME280;66168;45.478;11.060;2024-02-14T08:32:17;101661.52;;;12.03;53.67
76868;BME280;66168;45.478;11.060;2024-02-14T08:34:45;101663.47;;;12.20;52.49
76868;BME280;66168;45.478;11.060;2024-02-14T08:37:12;101662.62;;;12.35;52.94
76868;BME280;66168;45.478;11.060;2024-02-14T08:39:39;101659.09;;;12.50;51.98
76868;BME280;66168;45.478;11.060;2024-02-14T08:42:07;101663.70;;;12.59;51.78
76868;BME280;66168;45.478;11.060;2024-02-14T08:44:35;101668.39;;;12.59;50.94
76868;BME280;66168;45.478;11.060;2024-02-14T08:47:03;101669.38;;;12.60;50.49
76868;BME280;66168;45.478;11.060;2024-02-14T08:49:33;101671.41;;;12.60;51.00
76868;BME280;66168;45.478;11.060;2024-02-14T08:52:00;101673.95;;;12.57;52.07
76868;BME280;66168;45.478;11.060;2024-02-14T08:54:27;101673.52;;;12.51;51.78
76868;BME280;66168;45.478;11.060;2024-02-14T08:56:55;101672.05;;;12.58;52.06
76868;BME280;66168;45.478;11.060;2024-02-14T08:59:25;101670.42;;;12.57;51.75
76868;BME280;66168;45.478;11.060;2024-02-14T09:01:55;101674.50;;;12.60;51.26
76868;BME280;66168;45.478;11.060;2024-02-14T09:04:22;101675.30;;;12.64;51.22
76868;BME280;66168;45.478;11.060;2024-02-14T09:06:49;101677.02;;;12.70;50.81
76868;BME280;66168;45.478;11.060;2024-02-14T09:09:16;101676.42;;;12.77;50.00
76868;BME280;66168;45.478;11.060;2024-02-14T09:11:42;101670.89;;;12.77;50.28
76868;BME280;66168;45.478;11.060;2024-02-14T09:14:09;101661.39;;;12.96;50.85
76868;BME280;66168;45.478;11.060;2024-02-14T09:16:37;101658.98;;;13.13;50.49
76868;BME280;66168;45.478;11.060;2024-02-14T09:19:05;101658.48;;;13.21;49.60
76868;BME280;66168;45.478;11.060;2024-02-14T09:21:34;101656.76;;;13.41;50.22
76868;BME280;66168;45.478;11.060;2024-02-14T09:24:03;101648.20;;;13.61;49.98
76868;BME280;66168;45.478;11.060;2024-02-14T09:26:30;101649.97;;;13.79;49.32
76868;BME280;66168;45.478;11.060;2024-02-14T09:28:57;101651.21;;;13.87;48.58
76868;BME280;66168;45.478;11.060;2024-02-14T09:31:24;101649.70;;;13.96;48.84
76868;BME280;66168;45.478;11.060;2024-02-14T09:33:51;101655.54;;;13.97;48.39
76868;BME280;66168;45.478;11.060;2024-02-14T09:36:20;101658.23;;;14.02;48.99
76868;BME280;66168;45.478;11.060;2024-02-14T09:38:47;101665.42;;;14.00;49.21
76868;BME280;66168;45.478;11.060;2024-02-14T09:41:22;101668.56;;;13.91;48.82
76868;BME280;66168;45.478;11.060;2024-02-14T09:43:50;101667.67;;;13.75;49.47
76868;BME280;66168;45.478;11.060;2024-02-14T09:46:17;101668.72;;;13.82;49.58
76868;BME280;66168;45.478;11.060;2024-02-14T09:48:45;101665.27;;;13.95;49.22
76868;BME280;66168;45.478;11.060;2024-02-14T09:51:13;101665.44;;;14.10;49.24
76868;BME280;66168;45.478;11.060;2024-02-14T09:53:40;101668.62;;;14.17;48.80
76868;BME280;66168;45.478;11.060;2024-02-14T09:56:11;101668.88;;;14.21;48.51
76868;BME280;66168;45.478;11.060;2024-02-14T09:58:43;101666.81;;;14.25;48.12
76868;BME280;66168;45.478;11.060;2024-02-14T10:01:13;101669.80;;;14.43;48.34
76868;BME280;66168;45.478;11.060;2024-02-14T10:03:40;101664.52;;;14.53;47.73
76868;BME280;66168;45.478;11.060;2024-02-14T10:06:07;101670.06;;;14.60;47.26
76868;BME280;66168;45.478;11.060;2024-02-14T10:08:34;101668.82;;;14.60;46.97
76868;BME280;66168;45.478;11.060;2024-02-14T10:11:08;101673.83;;;14.59;46.51
76868;BME280;66168;45.478;11.060;2024-02-14T10:13:36;101674.43;;;14.46;45.73
76868;BME280;66168;45.478;11.060;2024-02-14T10:16:03;101668.53;;;14.49;46.87
76868;BME280;66168;45.478;11.060;2024-02-14T10:18:31;101672.70;;;14.64;47.01
76868;BME280;66168;45.478;11.060;2024-02-14T10:20:58;101669.34;;;14.72;46.37
76868;BME280;66168;45.478;11.060;2024-02-14T10:23:28;101665.78;;;14.75;46.71
76868;BME280;66168;45.478;11.060;2024-02-14T10:25:56;101660.83;;;14.80;45.87
76868;BME280;66168;45.478;11.060;2024-02-14T10:28:26;101654.38;;;14.88;46.98
76868;BME280;66168;45.478;11.060;2024-02-14T10:31:05;101660.27;;;14.97;46.78
76868;BME280;66168;45.478;11.060;2024-02-14T10:33:32;101656.27;;;15.11;46.67
76868;BME280;66168;45.478;11.060;2024-02-14T10:35:59;101652.55;;;15.25;45.39
76868;BME280;66168;45.478;11.060;2024-02-14T10:38:31;101654.95;;;15.19;44.19
76868;BME280;66168;45.478;11.060;2024-02-14T10:41:02;101655.33;;;15.11;44.99
76868;BME280;66168;45.478;11.060;2024-02-14T10:43:30;101653.30;;;15.10;45.46
76868;BME280;66168;45.478;11.060;2024-02-14T10:46:05;101654.36;;;15.22;45.80
76868;BME280;66168;45.478;11.060;2024-02-14T10:48:35;101652.92;;;15.08;45.30
76868;BME280;66168;45.478;11.060;2024-02-14T10:51:05;101649.18;;;15.09;45.90
76868;BME280;66168;45.478;11.060;2024-02-14T10:53:35;101642.40;;;15.12;46.42
76868;BME280;66168;45.478;11.060;2024-02-14T10:56:06;101643.98;;;15.15;46.09
76868;BME280;66168;45.478;11.060;2024-02-14T10:58:33;101643.99;;;15.16;46.76
76868;BME280;66168;45.478;11.060;2024-02-14T11:01:01;101642.99;;;15.15;46.78
76868;BME280;66168;45.478;11.060;2024-02-14T11:03:28;101640.72;;;15.20;46.94
76868;BME280;66168;45.478;11.060;2024-02-14T11:06:01;101632.46;;;15.41;46.71
76868;BME280;66168;45.478;11.060;2024-02-14T11:08:31;101632.89;;;15.61;46.24
76868;BME280;66168;45.478;11.060;2024-02-14T11:11:00;101632.73;;;15.92;46.85
76868;BME280;66168;45.478;11.060;2024-02-14T11:13:28;101633.67;;;16.07;46.01
76868;BME280;66168;45.478;11.060;2024-02-14T11:15:57;101634.45;;;16.10;45.52
76868;BME280;66168;45.478;11.060;2024-02-14T11:18:28;101632.41;;;16.05;45.48
76868;BME280;66168;45.478;11.060;2024-02-14T11:21:03;101626.23;;;16.07;45.88
76868;BME280;66168;45.478;11.060;2024-02-14T11:23:31;101629.26;;;16.14;45.90
76868;BME280;66168;45.478;11.060;2024-02-14T11:26:01;101632.98;;;16.04;45.68
76868;BME280;66168;45.478;11.060;2024-02-14T11:28:30;101637.86;;;15.86;46.10
76868;BME280;66168;45.478;11.060;2024-02-14T11:31:01;101637.69;;;15.85;46.05
76868;BME280;66168;45.478;11.060;2024-02-14T11:33:30;101635.36;;;16.04;46.08
76868;BME280;66168;45.478;11.060;2024-02-14T11:36:07;101634.78;;;16.10;46.38
76868;BME280;66168;45.478;11.060;2024-02-14T11:38:36;101630.70;;;16.08;46.32
76868;BME280;66168;45.478;11.060;2024-02-14T11:41:02;101623.31;;;16.23;46.21
76868;BME280;66168;45.478;11.060;2024-02-14T11:43:30;101616.17;;;16.24;45.43
76868;BME280;66168;45.478;11.060;2024-02-14T11:45:57;101612.86;;;16.19;46.26
76868;BME280;66168;45.478;11.060;2024-02-14T11:48:24;101608.16;;;16.21;45.92
76868;BME280;66168;45.478;11.060;2024-02-14T11:50:53;101608.98;;;16.03;46.08
76868;BME280;66168;45.478;11.060;2024-02-14T11:53:23;101609.27;;;15.94;46.18
76868;BME280;66168;45.478;11.060;2024-02-14T11:55:50;101607.39;;;15.78;46.59
76868;BME280;66168;45.478;11.060;2024-02-14T11:58:18;101603.42;;;15.87;46.44
76868;BME280;66168;45.478;11.060;2024-02-14T12:00:46;101609.30;;;15.74;47.32
76868;BME280;66168;45.478;11.060;2024-02-14T12:03:19;101612.95;;;15.63;46.96
76868;BME280;66168;45.478;11.060;2024-02-14T12:05:51;101609.55;;;15.68;47.11
76868;BME280;66168;45.478;11.060;2024-02-14T12:08:19;101599.66;;;15.74;47.22
76868;BME280;66168;45.478;11.060;2024-02-14T12:10:46;101601.32;;;15.66;46.93
76868;BME280;66168;45.478;11.060;2024-02-14T12:13:19;101602.81;;;15.76;47.26
76868;BME280;66168;45.478;11.060;2024-02-14T12:15:48;101608.73;;;15.96;47.04
76868;BME280;66168;45.478;11.060;2024-02-14T12:18:19;101608.34;;;16.14;46.89
76868;BME280;66168;45.478;11.060;2024-02-14T12:20:47;101598.98;;;16.23;47.02
76868;BME280;66168;45.478;11.060;2024-02-14T12:23:22;101593.09;;;16.28;46.28
76868;BME280;66168;45.478;11.060;2024-02-14T12:25:50;101593.77;;;16.33;45.61
76868;BME280;66168;45.478;11.060;2024-02-14T12:28:18;101590.20;;;16.33;45.84
76868;BME280;66168;45.478;11.060;2024-02-14T12:30:49;101589.56;;;16.22;45.79
76868;BME280;66168;45.478;11.060;2024-02-14T12:33:18;101589.33;;;16.10;46.31
76868;BME280;66168;45.478;11.060;2024-02-14T12:35:47;101583.85;;;16.08;46.74
76868;BME280;66168;45.478;11.060;2024-02-14T12:38:16;101584.91;;;16.12;47.18
76868;BME280;66168;45.478;11.060;2024-02-14T12:40:43;101588.73;;;16.19;46.79
76868;BME280;66168;45.478;11.060;2024-02-14T12:43:14;101589.42;;;16.29;46.12
76868;BME280;66168;45.478;11.060;2024-02-14T12:45:43;101587.55;;;16.39;45.31
76868;BME280;66168;45.478;11.060;2024-02-14T12:48:13;101583.33;;;16.45;45.38
76868;BME280;66168;45.478;11.060;2024-02-14T12:50:41;101581.27;;;16.42;45.35
76868;BME280;66168;45.478;11.060;2024-02-14T12:53:14;101583.70;;;16.26;45.36
76868;BME280;66168;45.478;11.060;2024-02-14T12:55:41;101574.87;;;16.27;45.85
76868;BME280;66168;45.478;11.060;2024-02-14T12:58:08;101563.08;;;16.37;45.38
76868;BME280;66168;45.478;11.060;2024-02-14T13:00:36;101560.56;;;16.30;45.07